CMA CGM Marseille — 2IJJ2 — position and weather

sailwx.info

Track history (hours):
 
Tides and Currents Weather Stations Pressure Air Temp Water Temp Dewpoint Dewpoint Depression Visibility Wind Speed Wind Dir Waves Ship Positions

CMA CGM Marseille

Last reported at 2017-Dec-18 14:30 UTC. Time now 2017-Dec-18 14:56 UTC.
Position N 51°28' E 001°26'.

Length 190 m; draft 8.2 m.

Type: Ship (hazmat cat A). MMSI: 235110247.

Date/timePositionNaut miles runAvg speedWind from/ knotsBaromVisibWave heightAir tempDewpointWater temp
2017-Dec-18 14:30N 51°28' E 001°26'510.2
2017-Dec-18 14:01N 51°25' E 001°32'3 5.5
2017-Dec-18 13:31N 51°22' E 001°34'510.4
2017-Dec-18 13:00N 51°18' E 001°37'713.9
2017-Dec-18 12:31N 51°11' E 001°39'612.4
2017-Dec-18 12:00N 51°05' E 001°37'816.0
2017-Dec-18 11:30N 50°59' E 001°28'714.7
2017-Dec-18 11:00N 50°53' E 001°23'714.7
2017-Dec-18 10:30N 50°45' E 001°20'4014.8
2017-Dec-18 07:50N 50°26' E 000°26'516.2
2017-Dec-18 07:30N 50°24' E 000°18'816.2
2017-Dec-18 07:00N 50°22' E 000°06'917.5
2017-Dec-18 06:30N 50°19' W 000°07'918.0
2017-Dec-18 06:00N 50°17' W 000°21'917.8
2017-Dec-18 05:29N 50°14' W 000°35'917.3
2017-Dec-18 04:59N 50°11' W 000°48'816.7
2017-Dec-18 04:30N 50°09' W 000°60'6815.6
2017-Dec-18 00:10N 49°52' W 002°41'316.7
2017-Dec-18 00:00N 49°51' W 002°45'916.9
2017-Dec-17 23:27N 49°47' W 002°59'817.3
2017-Dec-17 22:58N 49°43' W 003°10'1017.5
2017-Dec-17 22:22N 49°38' W 003°24'4917.8
2017-Dec-17 19:38N 49°14' W 004°29'618.3
2017-Dec-17 19:20N 49°11' W 004°37'718.7
2017-Dec-17 18:56N 49°07' W 004°46'819.1
2017-Dec-17 18:30N 49°03' W 004°57'1019.3
2017-Dec-17 18:00N 48°58' W 005°10'1019.4
2017-Dec-17 17:30N 48°54' W 005°22'1019.7
2017-Dec-17 17:00N 48°48' W 005°35'1719.4
2017-Dec-17 16:07N 48°34' W 005°49'219.8
2017-Dec-17 16:00N 48°31' W 005°50'1119.8
2017-Dec-17 15:27N 48°21' W 005°57'916.4
2017-Dec-17 14:53N 48°13' W 006°03'615.8
2017-Dec-17 14:29N 48°08' W 006°07'1019.9
2017-Dec-17 13:58N 47°58' W 006°15'920.4
2017-Dec-17 13:30N 47°50' W 006°21'1120.4
2017-Dec-17 12:57N 47°40' W 006°29'1020.1
2017-Dec-17 12:27N 47°31' W 006°35'919.4
2017-Dec-17 11:59N 47°23' W 006°40'1419.0
2017-Dec-17 11:15N 47°10' W 006°50'519.2
2017-Dec-17 11:00N 47°07' W 006°54'48316.9
2017-Dec-16 06:27N 39°22' W 009°53'714.6
2017-Dec-16 06:00N 39°15' W 009°53'714.4
2017-Dec-16 05:30N 39°08' W 009°53'714.4
2017-Dec-16 05:00N 39°01' W 009°53'714.3
2017-Dec-16 04:30N 38°54' W 009°53'714.5
2017-Dec-16 04:00N 38°47' W 009°52'714.7
2017-Dec-16 03:30N 38°39' W 009°51'714.9
2017-Dec-16 03:00N 38°32' W 009°49'714.9
2017-Dec-16 02:30N 38°25' W 009°47'815.2
2017-Dec-16 02:00N 38°17' W 009°45'815.0
2017-Dec-16 01:30N 38°10' W 009°42'715.0
2017-Dec-16 01:00N 38°03' W 009°40'815.2
2017-Dec-16 00:30N 37°55' W 009°38'815.3
2017-Dec-16 00:00N 37°48' W 009°36'815.0
2017-Dec-15 23:30N 37°41' W 009°34'6514.3
2017-Dec-15 18:56N 36°42' W 008°58'717.2
2017-Dec-15 18:30N 36°40' W 008°49'1217.6
2017-Dec-15 17:48N 36°36' W 008°35'15217.3
2017-Dec-15 09:00N 35°59' W 005°31'714.1
2017-Dec-15 08:29N 36°03' W 005°24'5 4.5
2017-Dec-15 07:25N 36°08' W 005°25'0 0.0
2017-Dec-15 06:55N 36°08' W 005°25'0 0.0
2017-Dec-15 06:28N 36°08' W 005°25'0 0.0
2017-Dec-15 05:58N 36°08' W 005°25'0 0.0
2017-Dec-15 05:28N 36°08' W 005°25'0 0.0
2017-Dec-15 04:52N 36°08' W 005°25'0 0.0
2017-Dec-15 04:22N 36°08' W 005°25'0 0.0
2017-Dec-15 03:58N 36°08' W 005°25'0 0.0
2017-Dec-15 02:28N 36°08' W 005°25'0 0.0
2017-Dec-15 00:58N 36°08' W 005°25'0 0.0
2017-Dec-15 00:25N 36°08' W 005°25'6 0.9
2017-Dec-14 17:34N 36°03' W 005°21'111.1
2017-Dec-14 17:31N 36°02' W 005°21'612.0
2017-Dec-14 17:01N 35°58' W 005°26'58314.3
2017-Dec-13 00:15N 28°43' W 013°04'311.7
2017-Dec-13 00:01N 28°40' W 013°06'611.8
2017-Dec-12 23:27N 28°35' W 013°10'  
Track history (hours):
 
Tides and Currents Weather Stations Pressure Air Temp Water Temp Dewpoint Dewpoint Depression Visibility Wind Speed Wind Dir Waves Ship Positions

CMA CGM Marseille

Last reported at 2017-Dec-18 14:30 UTC. Time now 2017-Dec-18 14:56 UTC.
Position N 51°28' E 001°26'.

Length 190 m; draft 8.2 m.

Type: Ship (hazmat cat A). MMSI: 235110247.

Date/timePositionNaut miles runAvg speedWind from/ knotsBaromVisibWave heightAir tempDewpointWater temp
2017-Dec-18 14:30N 51°28' E 001°26'510.2
2017-Dec-18 14:01N 51°25' E 001°32'3 5.5
2017-Dec-18 13:31N 51°22' E 001°34'510.4
2017-Dec-18 13:00N 51°18' E 001°37'713.9
2017-Dec-18 12:31N 51°11' E 001°39'612.4
2017-Dec-18 12:00N 51°05' E 001°37'816.0
2017-Dec-18 11:30N 50°59' E 001°28'714.7
2017-Dec-18 11:00N 50°53' E 001°23'714.7
2017-Dec-18 10:30N 50°45' E 001°20'4014.8
2017-Dec-18 07:50N 50°26' E 000°26'516.2
2017-Dec-18 07:30N 50°24' E 000°18'816.2
2017-Dec-18 07:00N 50°22' E 000°06'917.5
2017-Dec-18 06:30N 50°19' W 000°07'918.0
2017-Dec-18 06:00N 50°17' W 000°21'917.8
2017-Dec-18 05:29N 50°14' W 000°35'917.3
2017-Dec-18 04:59N 50°11' W 000°48'816.7
2017-Dec-18 04:30N 50°09' W 000°60'6815.6
2017-Dec-18 00:10N 49°52' W 002°41'316.7
2017-Dec-18 00:00N 49°51' W 002°45'916.9
2017-Dec-17 23:27N 49°47' W 002°59'817.3
2017-Dec-17 22:58N 49°43' W 003°10'1017.5
2017-Dec-17 22:22N 49°38' W 003°24'4917.8
2017-Dec-17 19:38N 49°14' W 004°29'618.3
2017-Dec-17 19:20N 49°11' W 004°37'718.7
2017-Dec-17 18:56N 49°07' W 004°46'819.1
2017-Dec-17 18:30N 49°03' W 004°57'1019.3
2017-Dec-17 18:00N 48°58' W 005°10'1019.4
2017-Dec-17 17:30N 48°54' W 005°22'1019.7
2017-Dec-17 17:00N 48°48' W 005°35'1719.4
2017-Dec-17 16:07N 48°34' W 005°49'219.8
2017-Dec-17 16:00N 48°31' W 005°50'1119.8
2017-Dec-17 15:27N 48°21' W 005°57'916.4
2017-Dec-17 14:53N 48°13' W 006°03'615.8
2017-Dec-17 14:29N 48°08' W 006°07'1019.9
2017-Dec-17 13:58N 47°58' W 006°15'920.4
2017-Dec-17 13:30N 47°50' W 006°21'1120.4
2017-Dec-17 12:57N 47°40' W 006°29'1020.1
2017-Dec-17 12:27N 47°31' W 006°35'919.4
2017-Dec-17 11:59N 47°23' W 006°40'1419.0
2017-Dec-17 11:15N 47°10' W 006°50'519.2
2017-Dec-17 11:00N 47°07' W 006°54'48316.9
2017-Dec-16 06:27N 39°22' W 009°53'714.6
2017-Dec-16 06:00N 39°15' W 009°53'714.4
2017-Dec-16 05:30N 39°08' W 009°53'714.4
2017-Dec-16 05:00N 39°01' W 009°53'714.3
2017-Dec-16 04:30N 38°54' W 009°53'714.5
2017-Dec-16 04:00N 38°47' W 009°52'714.7
2017-Dec-16 03:30N 38°39' W 009°51'714.9
2017-Dec-16 03:00N 38°32' W 009°49'714.9
2017-Dec-16 02:30N 38°25' W 009°47'815.2
2017-Dec-16 02:00N 38°17' W 009°45'815.0
2017-Dec-16 01:30N 38°10' W 009°42'715.0
2017-Dec-16 01:00N 38°03' W 009°40'815.2
2017-Dec-16 00:30N 37°55' W 009°38'815.3
2017-Dec-16 00:00N 37°48' W 009°36'815.0
2017-Dec-15 23:30N 37°41' W 009°34'6514.3
2017-Dec-15 18:56N 36°42' W 008°58'717.2
2017-Dec-15 18:30N 36°40' W 008°49'1217.6
2017-Dec-15 17:48N 36°36' W 008°35'15217.3
2017-Dec-15 09:00N 35°59' W 005°31'714.1
2017-Dec-15 08:29N 36°03' W 005°24'5 4.5
2017-Dec-15 07:25N 36°08' W 005°25'0 0.0
2017-Dec-15 06:55N 36°08' W 005°25'0 0.0
2017-Dec-15 06:28N 36°08' W 005°25'0 0.0
2017-Dec-15 05:58N 36°08' W 005°25'0 0.0
2017-Dec-15 05:28N 36°08' W 005°25'0 0.0
2017-Dec-15 04:52N 36°08' W 005°25'0 0.0
2017-Dec-15 04:22N 36°08' W 005°25'0 0.0
2017-Dec-15 03:58N 36°08' W 005°25'0 0.0
2017-Dec-15 02:28N 36°08' W 005°25'0 0.0
2017-Dec-15 00:58N 36°08' W 005°25'0 0.0
2017-Dec-15 00:25N 36°08' W 005°25'6 0.9
2017-Dec-14 17:34N 36°03' W 005°21'111.1
2017-Dec-14 17:31N 36°02' W 005°21'612.0
2017-Dec-14 17:01N 35°58' W 005°26'58314.3
2017-Dec-13 00:15N 28°43' W 013°04'311.7
2017-Dec-13 00:01N 28°40' W 013°06'611.8
2017-Dec-12 23:27N 28°35' W 013°10'  

Dump ship's entire track history